Nearby METAR Reports

 

EGVN - Brize Norton Raf, United Kingdom
Distance from station: SSE 20mi, 32km
Updated: 19/09/2018 19:50
Overcast
Overcast
 Wind from W
Wind: W 10 mph , 17 km/h, Gust: 22 mph , 35 km/h
Temperature: 15°C
Dew Point: 12°C
Humidity: 82%
Barometer: 1013 hPa
Clouds: Overcast
Visibility: 6 miles , 10 km
Cloud details: Few Clouds 518 m
Mostly cloudy 1463 m
Overcast 2134 m
2018/09/19 18:50 EGVN 191850Z 26009G19KT 9999 FEW017 BKN048 OVC070 15/12 Q1013 BECMG SCT017
EGTK - Oxford, United Kingdom
Distance from station: SE 22mi, 35km
Updated: 19/09/2018 20:20
Partly cloudy
Partly cloudy
 Wind from WSW
Wind: WSW 15 mph , 24 km/h
Temperature: 15°C
Dew Point: 12°C
Humidity: 82%
Barometer: 1013 hPa
Clouds: Partly cloudy
Visibility: 6 miles , 10 km
Cloud details: Partly cloudy 610 m
Partly cloudy 1311 m
2018/09/19 19:20 EGTK 191920Z 25013KT 9999 SCT020 SCT043 15/12 Q1013
 
EGBJ - Staverton (priva, United Kingdom
Distance from station: WSW 23mi, 36km
Updated: 19/09/2018 18:50
NOT Current
Nearby showers, Few clouds
Nearby showers, Few clouds
 Wind from WSW
Wind: WSW 10 mph , 17 km/h
Temperature: 17°C
Dew Point: 11°C
Humidity: 68%
Barometer: 1012 hPa
Summary: Nearby Showers
Clouds: Few Clouds
Visibility: 6 miles , 10 km
Cloud details: Few Clouds 671 m
2018/09/19 17:50 EGBJ 191750Z 25009KT 9999 VCSH FEW022 17/11 Q1012
EGVA - Fairford Raf, United Kingdom
Distance from station: S 27mi, 43km
Updated: 19/09/2018 20:26
Overcast
Overcast
 Wind from SW
Wind: SW 9 mph , 15 km/h
Temperature: 15°C
Dew Point: 12°C
Humidity: 82%
Barometer: 1012.9 hPa
Clouds: Overcast
Visibility: 6 miles , 10 km
Cloud details: Partly cloudy 914 m
Overcast 2134 m
2018/09/19 19:26 EGVA 191926Z AUTO 23008KT 9999 SCT030 OVC070 15/12 A2991 RMK AO2 SLP131 $
 
EGBB - Birmingham Airpo, United Kingdom
Distance from station: N 29mi, 46km
Updated: 19/09/2018 20:20
Clear
Clear
 Wind from W
Wind: W 10 mph , 17 km/h
Temperature: 15°C
Dew Point: 5°C
Humidity: 51%
Barometer: 1012 hPa
Summary: Clear
Visibility: greater than 7 miles , 10 km
2018/09/19 19:20 EGBB 191920Z 26009KT 220V290 CAVOK 15/05 Q1012
EGUB - Benson Raf, United Kingdom
Distance from station: SE 40mi, 65km
Updated: 19/09/2018 20:27
Rain drizzle, Mostly cloudy
Rain drizzle, Mostly cloudy
 Wind from WSW
Wind: WSW 9 mph , 15 km/h
Temperature: 15°C
Dew Point: 14°C
Humidity: 94%
Barometer: 1014 hPa
Summary: Rain Drizzle
Clouds: Mostly cloudy
Visibility: 2 miles , 4 km
Cloud details: Few Clouds 305 m
Partly cloudy 549 m
Mostly cloudy 914 m
2018/09/19 19:27 EGUB 191927Z 24008KT 4000 RADZ FEW010 SCT018 BKN030 15/14 Q1014 GRN BECMG 9999 NSW FEW018 BKN030 BLU
 
EGTC - Cranfield, United Kingdom
Distance from station: E 46mi, 74km
Updated: 19/09/2018 17:50
NOT Current
Light rain, Mostly cloudy
Light rain, Mostly cloudy
 Wind from SW
Wind: SW 23 mph , 37 km/h
Temperature: 20°C
Dew Point: 15°C
Humidity: 73%
Barometer: 1010 hPa
Summary: Light rain
Clouds: Mostly cloudy
Visibility: 6 miles , 10 km
Cloud details: Mostly cloudy 853 m
2018/09/19 16:50 EGTC 191650Z 22020KT 9999 -RA BKN028 20/15 Q1010
EGWC - Cosford Raf, United Kingdom
Distance from station: NNW 46mi, 75km
Updated: 19/09/2018 08:50
NOT Current
Few Clouds
Few Clouds
 Wind from S
Wind: S 24 mph , 39 km/h
Temperature: 16°C
Dew Point: 13°C
Humidity: 83%
Barometer: 1005 hPa
Clouds: Few Clouds
Visibility: 6 miles , 10 km
Cloud details: Few Clouds 610 m
2018/09/19 07:50 EGWC 190750Z 19021KT 9999 FEW020 16/13 Q1005 BLU